الصفحة الرئيسية
METAR-TAF:

METAR-TAF

مطار :

مطار حمد الدولي

الدوحة, قطر

دائرة عرض: 25-16-23N, خط طول: 51-36-29E, ارتفاع: 4 متر

مراقبة الطقس الحالي

تاريخ ووقت الإصدار 1ساعة و 27 دقيقة قبل الساعة 21:00UTC
ريح 3 عقدة من الشرق, الاتجاه يتراوح بين الشمال/الشمال الشرقي و الجنوب الشرقي
درجة الحرارة 32°درجة مئوية
الرطوبة 56%
ضغط 997 hPa
الرؤية 10 كم أو أكثر
الغيوم لا تقل 1500 م ولا وجود لمزنة ركامية السحاب الأسود

METAR: OTHH 242100Z 08003KT 030V130 CAVOK 32/22 Q0997 NOSIG

زمن: 01:27 (22:27 UTC)

توقعات

تاريخ ووقت الإصدار 5ساعات و 27 دقيقة قبل الساعة 17:00UTC
التوقعات صالحة من24 الساعة 18 UTC إلى 25 الساعة 24 UTC
ريح 8 عقدة من الشرق/الشمال الشرقي
الرؤية: 8000 متر
مؤقت
من 24 الساعة 18 UTC إلى 25 الساعة 00 UTC
ريح 5 عقدة من الشمال
مؤقت
من 25 الساعة 01 UTC إلى 25 الساعة 05 UTC
ريح 5 عقدة من الغرب

TAF: OTHH 241700Z 2418/2524 07008KT 8000 NSC TEMPO 2418/2500 01005KT TEMPO 2501/2505 27005KT

أرصاد الطقس والتوقعات من أكثر من 4000 مطار (تقارير الطقس للمطار METAR والتنبؤ بالطقس بالمطارTAF).

المحطات المتاحة هي النقط الصفراء والحمراء على الخريطة.

حرك المؤشر فوق النقطة لمعرفة اسم المحطة.

ثم انقر لمعرفة أرصاد وتوقعات الطقس.

لتغيير الخارطة: اضغط على الأزرار الخضراء مع رمز الصليب الأسود للتكبير. على الزر الأخضر مع شرطة للتصغير، أو على الأسهم الخضراء للخرائط المجاورة.


METAR-TAF: